Time;durP1;ratioP1;P1;durP2;ratioP2;P2;SDS_P1;SDS_P2;PMS_P1;PMS_P2;Temp;Humidity;BMP_temperature;BMP_pressure;BME280_temperature;BME280_humidity;BME280_pressure;Samples;Min_cycle;Max_cycle;Signal;HPM_P1;HPM_P2
2022/11/22 00:00:19;;;;;;;2.35;2.00;;;5.10;99.90;;;;;;5071548;28;20311;-71
2022/11/22 00:02:46;;;;;;;2.90;2.15;;;5.10;99.90;;;;;;5071543;28;20716;-71
2022/11/22 00:05:13;;;;;;;5.07;2.40;;;5.10;99.90;;;;;;5071711;28;20227;-71
2022/11/22 00:07:40;;;;;;;2.67;2.22;;;5.10;99.90;;;;;;5071343;28;20201;-72
2022/11/22 00:10:11;;;;;;;2.35;1.70;;;5.10;99.90;;;;;;5071408;28;20243;-72
2022/11/22 00:12:38;;;;;;;4.53;2.50;;;5.10;99.90;;;;;;5071220;28;20743;-71
2022/11/22 00:15:06;;;;;;;2.75;2.50;;;5.20;99.90;;;;;;5071463;28;20587;-72
2022/11/22 00:17:34;;;;;;;4.35;2.13;;;5.20;99.90;;;;;;5071551;28;20212;-72
2022/11/22 00:20:01;;;;;;;3.60;2.30;;;5.20;99.90;;;;;;5070930;28;20217;-71
2022/11/22 00:22:27;;;;;;;2.38;1.80;;;5.10;99.90;;;;;;5071179;28;20203;-71
2022/11/22 00:24:54;;;;;;;7.05;2.13;;;4.90;99.90;;;;;;5071219;28;20216;-71
2022/11/22 00:27:22;;;;;;;3.22;2.42;;;4.90;99.90;;;;;;5072153;28;20201;-72
2022/11/22 00:29:49;;;;;;;2.10;1.90;;;4.90;99.90;;;;;;5071215;28;20260;-70
2022/11/22 00:32:16;;;;;;;4.70;2.30;;;4.90;99.90;;;;;;5070405;28;20642;-71
2022/11/22 00:34:43;;;;;;;3.30;2.33;;;4.90;99.90;;;;;;5071480;28;20205;-70
2022/11/22 00:37:10;;;;;;;3.70;2.22;;;4.90;99.90;;;;;;5070697;28;20205;-71
2022/11/22 00:39:37;;;;;;;3.42;2.08;;;4.90;99.90;;;;;;5071282;28;20295;-71
2022/11/22 00:42:04;;;;;;;2.80;2.20;;;4.90;99.90;;;;;;5070217;28;20221;-71
2022/11/22 00:44:32;;;;;;;2.58;1.83;;;4.80;99.90;;;;;;5071141;28;20284;-72
2022/11/22 00:46:59;;;;;;;5.00;2.78;;;4.80;99.90;;;;;;5072394;28;20216;-72
2022/11/22 00:49:26;;;;;;;2.17;1.95;;;4.90;99.90;;;;;;5072934;28;20228;-72
2022/11/22 00:51:52;;;;;;;4.78;1.80;;;4.90;99.90;;;;;;5071956;28;20222;-71
2022/11/22 00:54:19;;;;;;;2.58;2.35;;;4.90;99.90;;;;;;5072279;28;20221;-71
2022/11/22 00:56:46;;;;;;;11.30;2.70;;;4.90;99.90;;;;;;5073150;28;20197;-72
2022/11/22 00:59:13;;;;;;;2.45;2.25;;;5.00;99.90;;;;;;5072490;28;20212;-71
2022/11/22 01:01:41;;;;;;;2.65;2.25;;;5.00;99.90;;;;;;5072390;28;20224;-71
2022/11/22 01:04:08;;;;;;;2.65;2.00;;;5.00;99.90;;;;;;5072679;28;20292;-71
2022/11/22 01:06:35;;;;;;;3.08;2.13;;;5.00;99.90;;;;;;5072698;28;20217;-70
2022/11/22 01:09:02;;;;;;;2.17;1.92;;;5.00;99.90;;;;;;5072438;28;20205;-71
2022/11/22 01:11:29;;;;;;;4.78;2.00;;;5.00;99.90;;;;;;5071841;28;20312;-72
2022/11/22 01:13:55;;;;;;;8.55;2.00;;;5.10;99.90;;;;;;5072531;28;20205;-70
2022/11/22 01:16:22;;;;;;;1.70;1.60;;;5.10;99.90;;;;;;5071972;28;20200;-72
2022/11/22 01:18:51;;;;;;;2.10;1.92;;;5.10;99.90;;;;;;5072624;28;20218;-72
2022/11/22 01:21:17;;;;;;;3.45;2.20;;;5.20;99.90;;;;;;5071867;28;20715;-72
2022/11/22 01:23:44;;;;;;;5.60;2.20;;;5.20;99.90;;;;;;5071930;28;20284;-71
2022/11/22 01:26:12;;;;;;;2.20;1.98;;;5.20;99.90;;;;;;5071787;28;20221;-71
2022/11/22 01:28:39;;;;;;;2.80;2.40;;;5.20;99.90;;;;;;5072001;28;20219;-71
2022/11/22 01:31:06;;;;;;;2.72;2.20;;;5.20;99.90;;;;;;5071074;28;20315;-71
2022/11/22 01:33:33;;;;;;;1.75;1.65;;;5.20;99.90;;;;;;5072136;28;20296;-71
2022/11/22 01:36:01;;;;;;;3.50;1.58;;;5.20;99.90;;;;;;5071509;28;20207;-72
2022/11/22 01:38:28;;;;;;;1.90;1.45;;;5.20;99.90;;;;;;5070606;28;20202;-71
2022/11/22 01:40:55;;;;;;;2.08;1.83;;;5.20;99.90;;;;;;5069838;28;20244;-71
2022/11/22 01:43:24;;;;;;;2.80;2.35;;;5.20;99.90;;;;;;5071224;28;20292;-71
2022/11/22 01:45:52;;;;;;;4.45;1.83;;;5.10;99.90;;;;;;5070687;28;20227;-71
2022/11/22 01:48:31;;;;;;;2.67;1.85;;;5.20;99.90;;;;;;5071012;28;20208;-72
2022/11/22 01:51:03;;;;;;;3.55;1.85;;;5.20;99.90;;;;;;5070330;28;20217;-69
2022/11/22 01:53:34;;;;;;;1.55;1.27;;;5.20;99.90;;;;;;5071386;28;20211;-72
2022/11/22 01:56:04;;;;;;;2.63;2.20;;;5.20;99.90;;;;;;5071016;28;20262;-72
2022/11/22 01:58:33;;;;;;;2.03;1.70;;;5.20;99.90;;;;;;5071373;28;20291;-70
2022/11/22 02:01:01;;;;;;;2.47;1.40;;;5.30;99.90;;;;;;5070160;28;20221;-70
2022/11/22 02:03:30;;;;;;;1.80;1.50;;;5.30;99.90;;;;;;5070946;28;20208;-71
2022/11/22 02:05:57;;;;;;;2.53;2.25;;;5.30;99.90;;;;;;5073729;28;20232;-70
2022/11/22 02:08:32;;;;;;;1.50;1.40;;;5.30;99.90;;;;;;5074366;28;20316;-71
2022/11/22 02:11:01;;;;;;;3.67;2.45;;;5.30;99.90;;;;;;5073802;28;20224;-71
2022/11/22 02:13:29;;;;;;;2.17;1.98;;;5.30;99.90;;;;;;5074178;28;20201;-70
2022/11/22 02:15:57;;;;;;;1.80;1.35;;;5.40;99.90;;;;;;5074311;28;20204;-71
2022/11/22 02:18:24;;;;;;;1.63;1.52;;;5.40;99.90;;;;;;5074640;28;20198;-70
2022/11/22 02:20:51;;;;;;;2.75;1.60;;;5.40;99.90;;;;;;5073991;28;20224;-71
2022/11/22 02:23:28;;;;;;;2.33;1.45;;;5.40;99.90;;;;;;5075055;28;20582;-71
2022/11/22 02:25:59;;;;;;;2.03;1.88;;;5.40;99.90;;;;;;5074204;28;20311;-70
2022/11/22 02:28:28;;;;;;;2.20;1.70;;;5.40;99.90;;;;;;5074726;28;20636;-71
2022/11/22 02:30:55;;;;;;;5.75;1.95;;;5.40;99.90;;;;;;5073374;28;20308;-70
2022/11/22 02:33:22;;;;;;;3.22;1.92;;;5.30;99.90;;;;;;5074471;28;20207;-71
2022/11/22 02:35:49;;;;;;;2.72;1.95;;;5.40;99.90;;;;;;5074103;28;20608;-70
2022/11/22 02:38:18;;;;;;;1.50;1.40;;;5.40;99.90;;;;;;5053979;28;20206;-70
2022/11/22 02:40:49;;;;;;;3.00;1.83;;;5.40;99.90;;;;;;5054047;28;20228;-70
2022/11/22 02:43:20;;;;;;;4.00;1.90;;;5.40;99.90;;;;;;5054003;28;20264;-70
2022/11/22 02:45:47;;;;;;;2.83;1.63;;;5.40;99.90;;;;;;5054469;28;20223;-71
2022/11/22 02:48:16;;;;;;;3.17;1.55;;;5.40;99.90;;;;;;5054885;28;20201;-70
2022/11/22 02:50:43;;;;;;;2.97;1.85;;;5.40;99.90;;;;;;5053366;28;20779;-70
2022/11/22 02:53:12;;;;;;;2.45;1.70;;;5.30;99.90;;;;;;5053867;28;20297;-70
2022/11/22 02:55:39;;;;;;;2.55;1.70;;;5.30;99.90;;;;;;5053825;28;20207;-71
2022/11/22 02:58:06;;;;;;;2.78;1.60;;;5.30;99.90;;;;;;5053758;28;20209;-70
2022/11/22 03:00:36;;;;;;;2.08;1.55;;;5.30;99.90;;;;;;5053073;28;20290;-70
2022/11/22 03:03:03;;;;;;;2.55;1.65;;;5.30;99.90;;;;;;5053573;28;20289;-70
2022/11/22 03:05:29;;;;;;;2.00;1.75;;;5.30;99.90;;;;;;5053348;28;20705;-70
2022/11/22 03:07:56;;;;;;;2.30;1.70;;;5.30;99.90;;;;;;5053667;28;20236;-71
2022/11/22 03:10:23;;;;;;;1.50;1.40;;;5.20;99.90;;;;;;5053640;28;20308;-70
2022/11/22 03:12:50;;;;;;;3.67;1.70;;;5.20;99.90;;;;;;5053642;28;20208;-70
2022/11/22 03:15:17;;;;;;;2.08;1.70;;;5.20;99.90;;;;;;5053559;28;20201;-71
2022/11/22 03:17:45;;;;;;;3.17;1.80;;;5.20;99.90;;;;;;5052775;28;20296;-70
2022/11/22 03:20:12;;;;;;;1.50;1.40;;;5.20;99.90;;;;;;5053443;28;20222;-71
2022/11/22 03:22:39;;;;;;;2.33;1.58;;;5.10;99.90;;;;;;5053550;28;20294;-71
2022/11/22 03:25:07;;;;;;;1.98;1.65;;;5.10;99.90;;;;;;5053783;28;20238;-70
2022/11/22 03:27:34;;;;;;;1.65;1.40;;;5.10;99.90;;;;;;5053971;28;20551;-71
2022/11/22 03:30:01;;;;;;;2.65;1.73;;;5.10;99.90;;;;;;5053057;28;20205;-70
2022/11/22 03:32:27;;;;;;;2.05;1.75;;;5.10;99.90;;;;;;5053018;28;20201;-71
2022/11/22 03:34:55;;;;;;;2.35;1.70;;;5.10;99.90;;;;;;5052245;28;20204;-70
2022/11/22 03:37:22;;;;;;;2.10;1.55;;;5.10;99.90;;;;;;5052656;28;20216;-71
2022/11/22 03:39:49;;;;;;;4.45;1.73;;;5.20;99.90;;;;;;5053104;28;20210;-71
2022/11/22 03:42:16;;;;;;;1.50;1.40;;;5.20;99.90;;;;;;5052810;28;20297;-70
2022/11/22 03:44:43;;;;;;;4.35;1.58;;;5.20;99.90;;;;;;5053030;28;20199;-70
2022/11/22 03:47:09;;;;;;;3.58;1.67;;;5.20;99.90;;;;;;5052605;28;20232;-70
2022/11/22 03:49:36;;;;;;;1.65;1.50;;;5.20;99.90;;;;;;5053209;28;20292;-70
2022/11/22 03:52:05;;;;;;;8.27;2.13;;;5.20;99.90;;;;;;5051617;28;20312;-70
2022/11/22 03:54:31;;;;;;;1.98;1.42;;;5.20;99.90;;;;;;5052761;28;20234;-73
2022/11/22 03:56:58;;;;;;;1.67;1.40;;;5.10;99.90;;;;;;5052529;28;20285;-72
2022/11/22 03:59:25;;;;;;;1.67;1.30;;;5.10;99.90;;;;;;5052507;28;20232;-72
2022/11/22 04:01:52;;;;;;;1.92;1.63;;;5.10;99.90;;;;;;5052163;28;20223;-71
2022/11/22 04:04:19;;;;;;;1.65;1.50;;;5.10;99.90;;;;;;5052425;28;20204;-72
2022/11/22 04:06:46;;;;;;;2.13;1.60;;;5.10;99.90;;;;;;5052702;28;20236;-72
2022/11/22 04:09:14;;;;;;;1.60;1.30;;;5.10;99.90;;;;;;5051960;28;20210;-72
2022/11/22 04:11:41;;;;;;;1.33;1.20;;;5.10;99.90;;;;;;5052097;28;20217;-72
2022/11/22 04:16:55;;;;;;;3.35;1.60;;;5.10;99.90;;;;;;5052702;28;20205;-72
2022/11/22 04:19:22;;;;;;;1.95;1.50;;;5.00;99.90;;;;;;5052696;28;20202;-72
2022/11/22 04:21:47;;;;;;;3.30;1.20;;;5.00;99.90;;;;;;5051558;28;20225;-72
2022/11/22 04:27:00;;;;;;;3.80;1.30;;;4.90;99.90;;;;;;5051815;28;20816;-71
2022/11/22 04:29:27;;;;;;;1.58;1.30;;;4.90;99.90;;;;;;5051833;28;20201;-72
2022/11/22 04:34:38;;;;;;;3.65;1.83;;;4.80;99.90;;;;;;5111397;22;20332;-68
2022/11/22 04:37:05;;;;;;;1.30;1.20;;;4.80;99.90;;;;;;5030840;28;20276;-66
2022/11/22 04:39:33;;;;;;;1.85;1.20;;;4.80;99.90;;;;;;5031121;28;20203;-67
2022/11/22 04:44:45;;;;;;;1.85;1.33;;;4.80;99.90;;;;;;5031100;28;20214;-67
2022/11/22 04:47:57;;;;;;;1.33;1.23;;;4.70;99.90;;;;;;5031160;28;20257;-67
2022/11/22 04:52:52;;;;;;;1.58;1.42;;;4.70;99.90;;;;;;5029890;28;20664;-67
2022/11/22 04:52:52;;;;;;;1.90;1.70;;;4.60;99.90;;;;;;5031096;28;20634;-68
2022/11/22 04:55:21;;;;;;;2.53;2.00;;;4.60;99.90;;;;;;5030819;28;20312;-67
2022/11/22 04:57:48;;;;;;;3.97;2.10;;;4.50;99.90;;;;;;5031402;28;20292;-68
2022/11/22 05:00:16;;;;;;;2.63;1.63;;;4.50;99.90;;;;;;5029735;28;20306;-67
2022/11/22 05:02:43;;;;;;;1.60;1.50;;;4.40;99.90;;;;;;5030278;28;20198;-68
2022/11/22 05:05:10;;;;;;;3.85;1.70;;;4.30;99.90;;;;;;5033035;28;20200;-68
2022/11/22 05:07:37;;;;;;;2.13;1.92;;;4.30;99.90;;;;;;5032846;28;20705;-67
2022/11/22 05:10:04;;;;;;;2.25;1.40;;;4.20;99.90;;;;;;5050237;28;20285;-67
2022/11/22 05:12:33;;;;;;;1.80;1.45;;;4.20;99.90;;;;;;5039306;28;20205;-68
2022/11/22 05:14:59;;;;;;;1.45;1.20;;;4.10;99.90;;;;;;5035906;28;20205;-67
2022/11/22 05:17:26;;;;;;;1.70;1.08;;;4.10;99.90;;;;;;5050086;28;20625;-67
2022/11/22 05:19:53;;;;;;;1.60;1.13;;;4.10;99.90;;;;;;5049886;28;20615;-67
2022/11/22 05:23:52;;;;;;;1.13;1.00;;;4.10;99.90;;;;;;5049462;28;20281;-68
2022/11/22 05:25:07;;;;;;;2.88;1.70;;;4.10;99.90;;;;;;5049100;28;20444;-67
2022/11/22 05:27:35;;;;;;;2.88;1.40;;;4.00;99.90;;;;;;5040961;28;20219;-66
2022/11/22 05:30:02;;;;;;;2.95;1.40;;;4.00;99.90;;;;;;5038166;28;20204;-66
2022/11/22 05:32:30;;;;;;;1.90;1.70;;;4.00;99.90;;;;;;5028619;28;20199;-66
2022/11/22 05:34:57;;;;;;;2.65;1.40;;;4.00;99.90;;;;;;5028836;28;20209;-66
2022/11/22 05:37:24;;;;;;;1.42;1.33;;;3.90;99.90;;;;;;5030306;28;20647;-67
2022/11/22 05:39:57;;;;;;;2.95;1.48;;;4.00;99.90;;;;;;5030243;28;20684;-66
2022/11/22 05:42:23;;;;;;;2.17;1.20;;;4.00;99.90;;;;;;5032900;28;20222;-66
2022/11/22 05:44:52;;;;;;;2.00;1.42;;;4.00;99.90;;;;;;5033706;28;20289;-67
2022/11/22 05:47:18;;;;;;;1.63;1.13;;;4.00;99.90;;;;;;5034764;28;20228;-67
2022/11/22 05:49:45;;;;;;;2.78;1.65;;;4.00;99.90;;;;;;5035056;28;20202;-66
2022/11/22 05:52:12;;;;;;;1.92;1.80;;;4.00;99.90;;;;;;5034017;28;20226;-66
2022/11/22 05:54:39;;;;;;;1.63;1.40;;;4.00;99.90;;;;;;5035522;28;20206;-67
2022/11/22 05:57:06;;;;;;;5.00;1.38;;;4.00;99.90;;;;;;5034638;28;20659;-67
2022/11/22 05:59:33;;;;;;;2.80;1.38;;;4.00;99.90;;;;;;5034297;28;20688;-66
2022/11/22 06:02:01;;;;;;;2.58;1.30;;;4.00;99.90;;;;;;5034081;28;20576;-66
2022/11/22 06:04:28;;;;;;;1.58;1.30;;;4.00;99.90;;;;;;5034531;28;20207;-66
2022/11/22 06:06:55;;;;;;;3.67;2.00;;;4.00;99.90;;;;;;5034304;28;20318;-67
2022/11/22 06:09:22;;;;;;;4.43;2.30;;;4.00;99.90;;;;;;5034391;28;20220;-67
2022/11/22 06:11:49;;;;;;;2.95;1.40;;;4.00;99.90;;;;;;5033908;28;20231;-67
2022/11/22 06:14:16;;;;;;;4.00;1.75;;;4.00;99.90;;;;;;5034103;28;20457;-67
2022/11/22 06:16:43;;;;;;;1.88;1.58;;;4.00;99.90;;;;;;5034604;28;20293;-66
2022/11/22 06:19:12;;;;;;;3.85;1.10;;;4.00;99.90;;;;;;5034102;28;20202;-67
2022/11/22 06:21:39;;;;;;;1.45;1.35;;;4.00;99.90;;;;;;5033688;28;20222;-67
2022/11/22 06:24:07;;;;;;;1.75;1.20;;;3.90;99.90;;;;;;5034867;28;20204;-66
2022/11/22 06:26:34;;;;;;;1.40;1.30;;;3.90;99.90;;;;;;5034382;28;20310;-66
2022/11/22 06:29:01;;;;;;;1.67;1.30;;;4.00;99.90;;;;;;5034274;28;20230;-66
2022/11/22 06:31:28;;;;;;;5.40;1.60;;;4.00;99.90;;;;;;5033292;28;20230;-65
2022/11/22 06:33:58;;;;;;;1.52;1.30;;;3.90;99.90;;;;;;5034660;28;20217;-66
2022/11/22 06:36:27;;;;;;;3.28;1.60;;;4.00;99.90;;;;;;5034119;28;20205;-66
2022/11/22 06:38:54;;;;;;;2.45;1.70;;;4.00;99.90;;;;;;5034038;28;20289;-66
2022/11/22 06:41:23;;;;;;;2.80;1.50;;;4.00;99.90;;;;;;5033384;28;20233;-67
2022/11/22 06:43:52;;;;;;;2.05;1.40;;;4.00;99.90;;;;;;5033985;28;20302;-67
2022/11/22 06:46:20;;;;;;;2.15;1.95;;;4.00;99.90;;;;;;5033811;28;20210;-66
2022/11/22 06:48:47;;;;;;;1.40;1.30;;;4.00;99.90;;;;;;5034432;28;20277;-67
2022/11/22 06:51:16;;;;;;;2.10;1.25;;;4.00;99.90;;;;;;5032581;28;20222;-67
2022/11/22 06:53:45;;;;;;;4.68;1.83;;;4.00;99.90;;;;;;5033474;28;20298;-67
2022/11/22 06:56:14;;;;;;;2.95;1.65;;;4.00;99.90;;;;;;5038338;28;20198;-67
2022/11/22 06:58:41;;;;;;;1.42;1.33;;;4.00;99.90;;;;;;5042227;28;20233;-67
2022/11/22 07:01:11;;;;;;;2.55;1.52;;;4.00;99.90;;;;;;5052859;28;20252;-67
2022/11/22 07:03:39;;;;;;;2.00;1.73;;;3.90;99.90;;;;;;5053772;28;20198;-67
2022/11/22 07:06:07;;;;;;;2.40;1.55;;;3.90;99.90;;;;;;5053781;28;20213;-67
2022/11/22 07:08:35;;;;;;;6.55;2.83;;;4.00;99.90;;;;;;5053956;28;20312;-68
2022/11/22 07:11:04;;;;;;;3.38;2.30;;;4.00;99.90;;;;;;5041749;28;20673;-67
2022/11/22 07:13:31;;;;;;;2.28;1.85;;;4.00;99.90;;;;;;5031649;28;20210;-67
2022/11/22 07:16:00;;;;;;;2.47;1.65;;;4.00;99.90;;;;;;5034224;28;20736;-67
2022/11/22 07:18:28;;;;;;;2.13;1.63;;;4.00;99.90;;;;;;5033196;28;20549;-67
2022/11/22 07:21:01;;;;;;;4.22;1.90;;;4.10;99.90;;;;;;5032945;28;20250;-67
2022/11/22 07:23:27;;;;;;;4.40;2.10;;;4.10;99.90;;;;;;5032748;28;20603;-68
2022/11/22 07:25:54;;;;;;;2.95;1.63;;;4.10;99.90;;;;;;5033869;28;20207;-67
2022/11/22 07:28:23;;;;;;;2.80;1.52;;;4.20;99.90;;;;;;5032547;28;20282;-67
2022/11/22 07:30:50;;;;;;;4.53;1.83;;;4.20;99.90;;;;;;5032450;28;20314;-67
2022/11/22 07:33:17;;;;;;;2.95;1.80;;;4.30;99.90;;;;;;5032468;28;20213;-67
2022/11/22 07:35:44;;;;;;;2.08;1.42;;;4.20;99.90;;;;;;5032594;28;20204;-67
2022/11/22 07:38:11;;;;;;;4.13;2.25;;;4.30;99.90;;;;;;5030964;28;20269;-67
2022/11/22 07:40:38;;;;;;;2.10;1.50;;;4.30;99.90;;;;;;5030269;28;20243;-67
2022/11/22 07:43:05;;;;;;;2.17;1.25;;;4.30;99.90;;;;;;5030968;28;20211;-67
2022/11/22 07:45:34;;;;;;;3.20;1.40;;;4.30;99.90;;;;;;5031195;28;20749;-67
2022/11/22 07:48:01;;;;;;;1.65;1.55;;;4.40;99.90;;;;;;5030736;28;20653;-67
2022/11/22 07:50:29;;;;;;;1.83;1.55;;;4.40;99.90;;;;;;5030574;28;20573;-67
2022/11/22 07:52:56;;;;;;;2.53;1.70;;;4.40;99.90;;;;;;5030837;28;20289;-67
2022/11/22 07:55:24;;;;;;;2.65;1.67;;;4.50;99.90;;;;;;5030952;28;20324;-67
2022/11/22 07:57:51;;;;;;;3.00;1.50;;;4.50;99.90;;;;;;5030848;28;20222;-67
2022/11/22 08:00:19;;;;;;;2.25;1.65;;;4.60;99.90;;;;;;5030149;28;20780;-67
2022/11/22 08:02:47;;;;;;;2.17;1.98;;;4.60;99.90;;;;;;5029721;28;20211;-67
2022/11/22 08:05:14;;;;;;;1.77;1.40;;;4.70;99.90;;;;;;5030471;28;20692;-68
2022/11/22 08:07:46;;;;;;;1.70;1.60;;;4.70;99.90;;;;;;5030420;28;20698;-69
2022/11/22 08:10:13;;;;;;;2.22;1.40;;;4.80;99.90;;;;;;5029245;28;20222;-68
2022/11/22 08:12:40;;;;;;;2.90;1.60;;;4.80;99.90;;;;;;5029779;28;20206;-68
2022/11/22 08:15:08;;;;;;;2.97;2.00;;;4.90;99.90;;;;;;5030331;28;20217;-69
2022/11/22 08:17:35;;;;;;;5.63;2.20;;;4.90;99.90;;;;;;5029679;28;20221;-68
2022/11/22 08:20:04;;;;;;;7.28;2.28;;;4.90;99.90;;;;;;5029985;28;20803;-69
2022/11/22 08:22:30;;;;;;;2.35;1.70;;;5.00;99.90;;;;;;5029173;28;20198;-69
2022/11/22 08:24:57;;;;;;;2.67;1.92;;;5.00;99.90;;;;;;5029471;28;20210;-69
2022/11/22 08:27:24;;;;;;;3.85;1.80;;;5.00;99.90;;;;;;5029602;28;20253;-69
2022/11/22 08:29:51;;;;;;;2.20;2.00;;;5.10;99.90;;;;;;5029908;28;20212;-69
2022/11/22 08:32:18;;;;;;;5.63;2.20;;;5.10;99.90;;;;;;5028476;28;20202;-69
2022/11/22 08:34:44;;;;;;;1.65;1.50;;;5.20;99.90;;;;;;5029754;28;20215;-69
2022/11/22 08:37:13;;;;;;;2.78;2.30;;;5.20;99.90;;;;;;5029405;28;20201;-69
2022/11/22 08:39:39;;;;;;;4.32;2.00;;;5.30;99.90;;;;;;5029085;28;20202;-69
2022/11/22 08:42:06;;;;;;;3.78;1.75;;;5.40;99.90;;;;;;5029122;28;20232;-69
2022/11/22 08:44:33;;;;;;;4.85;1.95;;;5.40;99.90;;;;;;5029625;28;20735;-68
2022/11/22 08:46:59;;;;;;;11.82;3.15;;;5.60;99.90;;;;;;5029369;28;20252;-70
2022/11/22 08:49:26;;;;;;;2.88;2.08;;;5.60;99.90;;;;;;5029385;28;20203;-69
2022/11/22 08:51:53;;;;;;;3.72;1.58;;;5.70;99.90;;;;;;5029203;28;20234;-68
2022/11/22 08:54:21;;;;;;;2.30;1.65;;;5.70;99.90;;;;;;5029193;28;20212;-68
2022/11/22 08:56:48;;;;;;;1.92;1.63;;;5.70;99.90;;;;;;5029399;28;20708;-68
2022/11/22 08:59:14;;;;;;;3.58;1.70;;;5.80;99.90;;;;;;5029478;28;20198;-68
2022/11/22 09:01:41;;;;;;;1.58;1.48;;;5.80;99.90;;;;;;5028361;28;20238;-68
2022/11/22 09:04:08;;;;;;;2.20;1.85;;;5.80;99.90;;;;;;5029432;28;20218;-68
2022/11/22 09:06:35;;;;;;;3.05;2.03;;;5.90;99.90;;;;;;5029814;28;20206;-68
2022/11/22 09:09:01;;;;;;;2.30;1.40;;;6.00;99.90;;;;;;5028702;28;20222;-68
2022/11/22 09:11:30;;;;;;;2.22;1.40;;;6.00;99.90;;;;;;5029131;28;20225;-68
2022/11/22 09:13:57;;;;;;;3.47;1.83;;;6.10;99.90;;;;;;5029032;28;20210;-68
2022/11/22 09:16:24;;;;;;;5.50;1.80;;;6.20;99.90;;;;;;5028477;28;20266;-68
2022/11/22 09:18:52;;;;;;;2.88;1.40;;;6.30;99.90;;;;;;5029472;28;20568;-69
2022/11/22 09:21:19;;;;;;;6.38;1.60;;;6.50;99.90;;;;;;5028678;28;20219;-69
2022/11/22 09:23:48;;;;;;;2.30;1.65;;;6.60;99.90;;;;;;5028983;28;20222;-68
2022/11/22 09:26:17;;;;;;;1.67;1.58;;;6.60;99.90;;;;;;5028822;28;20206;-68
2022/11/22 09:28:46;;;;;;;3.38;1.40;;;6.60;99.90;;;;;;5029465;28;20222;-68
2022/11/22 09:31:15;;;;;;;2.47;1.63;;;6.70;99.90;;;;;;5027816;28;20231;-68
2022/11/22 09:33:43;;;;;;;3.67;1.60;;;6.70;99.90;;;;;;5029457;28;20215;-68
2022/11/22 09:36:12;;;;;;;2.13;1.60;;;6.70;99.90;;;;;;5029194;28;20300;-68
2022/11/22 09:38:39;;;;;;;2.08;1.25;;;6.60;99.90;;;;;;5028875;28;20203;-69
2022/11/22 09:41:49;;;;;;;4.05;1.90;;;6.60;99.90;;;;;;5029020;28;20226;-68
2022/11/22 09:44:26;;;;;;;3.65;1.73;;;6.60;99.90;;;;;;5029136;28;20217;-68
2022/11/22 09:46:57;;;;;;;1.70;1.50;;;6.60;99.90;;;;;;5029155;28;20560;-69
2022/11/22 09:49:28;;;;;;;3.90;1.50;;;6.70;99.90;;;;;;5029025;28;20214;-68
2022/11/22 09:52:05;;;;;;;8.52;1.85;;;6.70;99.90;;;;;;5028425;28;20234;-68
2022/11/22 09:54:41;;;;;;;4.20;2.10;;;6.60;99.90;;;;;;5028639;28;20206;-68
2022/11/22 09:57:14;;;;;;;1.67;1.45;;;6.60;99.90;;;;;;5028973;28;20669;-68
2022/11/22 09:59:46;;;;;;;2.65;1.85;;;6.50;99.90;;;;;;5028981;28;20743;-68
2022/11/22 10:02:20;;;;;;;2.10;1.30;;;6.60;99.90;;;;;;5027686;28;20226;-68
2022/11/22 10:04:51;;;;;;;2.78;1.55;;;6.60;99.90;;;;;;5029049;28;20202;-68
2022/11/22 10:07:24;;;;;;;5.05;1.98;;;6.50;99.90;;;;;;5029083;28;20846;-68
2022/11/22 10:09:58;;;;;;;2.25;1.25;;;6.50;99.90;;;;;;5028440;28;20204;-68
2022/11/22 10:12:31;;;;;;;2.95;1.60;;;6.50;99.90;;;;;;5028103;28;20209;-68
2022/11/22 10:15:06;;;;;;;3.80;1.75;;;6.60;99.90;;;;;;5028712;28;20293;-68
2022/11/22 10:17:48;;;;;;;2.47;1.30;;;6.50;99.90;;;;;;5028546;28;20579;-68
2022/11/22 10:20:18;;;;;;;3.20;1.20;;;6.50;99.90;;;;;;5028920;28;20230;-69
2022/11/22 10:22:45;;;;;;;2.63;1.15;;;6.50;99.90;;;;;;5027919;28;20213;-68
2022/11/22 10:25:17;;;;;;;1.58;1.48;;;6.60;99.90;;;;;;5028723;28;20209;-68
2022/11/22 10:27:47;;;;;;;2.55;1.90;;;6.70;99.90;;;;;;5030139;28;20252;-68
2022/11/22 10:30:18;;;;;;;2.03;1.27;;;6.70;99.90;;;;;;5030904;28;20229;-68
2022/11/22 10:32:59;;;;;;;2.78;1.60;;;6.60;99.90;;;;;;5033322;28;20202;-69
2022/11/22 10:35:44;;;;;;;1.73;1.20;;;6.60;99.90;;;;;;5033277;28;20574;-68
2022/11/22 10:38:30;;;;;;;1.70;1.30;;;6.60;99.90;;;;;;5032952;28;20225;-68
2022/11/22 10:41:08;;;;;;;3.78;1.63;;;6.60;99.90;;;;;;5032501;28;20597;-68
2022/11/22 10:43:42;;;;;;;1.77;1.33;;;6.60;99.90;;;;;;5033310;28;20620;-68
2022/11/22 10:46:17;;;;;;;4.93;1.58;;;6.70;99.90;;;;;;5032508;28;20696;-68
2022/11/22 10:48:52;;;;;;;3.47;1.20;;;6.70;99.90;;;;;;5033185;28;20437;-68
2022/11/22 10:51:29;;;;;;;1.55;1.30;;;6.70;99.90;;;;;;5031836;28;20233;-68
2022/11/22 10:54:07;;;;;;;3.28;1.42;;;6.70;99.90;;;;;;5032840;28;20198;-68
2022/11/22 10:56:40;;;;;;;2.65;1.05;;;6.80;99.90;;;;;;5032825;28;20206;-68
2022/11/22 10:59:30;;;;;;;1.27;1.10;;;6.80;99.90;;;;;;5032652;28;20202;-69
2022/11/22 11:02:09;;;;;;;1.88;1.30;;;6.80;99.90;;;;;;5032526;28;20218;-69
2022/11/22 11:04:39;;;;;;;2.20;1.50;;;6.80;99.90;;;;;;5032603;28;20198;-69
2022/11/22 11:07:16;;;;;;;2.53;1.73;;;6.90;99.90;;;;;;5032703;28;20574;-69
2022/11/22 11:09:46;;;;;;;3.60;1.58;;;6.90;99.90;;;;;;5032506;28;20222;-69
2022/11/22 11:12:19;;;;;;;3.30;1.40;;;6.90;99.90;;;;;;5031901;28;20232;-70
2022/11/22 11:14:49;;;;;;;2.15;1.50;;;6.90;99.90;;;;;;5032221;28;20305;-69
2022/11/22 11:17:26;;;;;;;5.03;1.50;;;7.00;99.90;;;;;;5032339;28;20546;-69
2022/11/22 11:19:54;;;;;;;1.45;1.35;;;7.00;99.90;;;;;;5032526;28;20635;-69
2022/11/22 11:22:23;;;;;;;2.83;1.65;;;7.00;99.90;;;;;;5031560;28;20208;-69
2022/11/22 11:24:49;;;;;;;1.10;1.00;;;7.00;99.90;;;;;;5032527;28;20676;-69
2022/11/22 11:27:19;;;;;;;2.15;1.20;;;7.00;99.90;;;;;;5031957;28;20209;-69
2022/11/22 11:29:47;;;;;;;3.05;1.42;;;7.00;99.90;;;;;;5032399;28;20743;-70
2022/11/22 11:32:16;;;;;;;1.38;1.10;;;7.00;99.90;;;;;;5031293;28;20232;-70
2022/11/22 11:34:52;;;;;;;2.90;1.30;;;7.00;99.90;;;;;;5032218;28;20210;-69
2022/11/22 11:37:25;;;;;;;1.65;1.00;;;7.00;99.90;;;;;;5031590;28;20633;-70
2022/11/22 11:39:51;;;;;;;2.67;1.35;;;7.00;99.90;;;;;;5031519;28;20202;-69
2022/11/22 11:42:28;;;;;;;1.35;1.20;;;7.10;99.90;;;;;;5031675;28;20209;-69
2022/11/22 11:45:18;;;;;;;3.88;1.80;;;7.10;99.90;;;;;;5031790;28;20202;-69
2022/11/22 11:47:45;;;;;;;4.00;1.17;;;7.20;99.90;;;;;;5031959;28;20324;-69
2022/11/22 11:50:19;;;;;;;2.10;1.85;;;7.20;99.90;;;;;;5031389;28;20282;-69
2022/11/22 11:52:50;;;;;;;2.00;1.13;;;7.40;99.90;;;;;;5031089;28;20203;-70
2022/11/22 11:55:17;;;;;;;2.53;1.10;;;7.40;99.90;;;;;;5031452;28;20580;-69
2022/11/22 11:57:45;;;;;;;1.70;1.05;;;7.60;99.90;;;;;;5032014;28;20217;-69
2022/11/22 12:00:20;;;;;;;2.30;1.30;;;7.60;99.90;;;;;;5030991;28;20288;-69
2022/11/22 12:02:49;;;;;;;3.08;1.33;;;7.70;99.90;;;;;;5031622;28;20202;-69
2022/11/22 12:05:27;;;;;;;1.30;0.90;;;7.60;99.90;;;;;;5031212;28;20199;-69
2022/11/22 12:07:54;;;;;;;1.88;1.20;;;7.60;99.90;;;;;;5031049;28;20207;-69
2022/11/22 12:10:34;;;;;;;4.20;1.70;;;7.50;99.90;;;;;;5030683;28;20218;-70
2022/11/22 12:13:05;;;;;;;2.33;1.13;;;7.50;99.90;;;;;;5031238;28;20240;-69
2022/11/22 12:15:43;;;;;;;2.20;1.33;;;7.50;99.90;;;;;;5031520;28;20582;-70
2022/11/22 12:18:24;;;;;;;3.60;1.35;;;7.60;99.90;;;;;;5030991;28;20202;-69
2022/11/22 12:21:01;;;;;;;3.95;1.80;;;7.60;99.90;;;;;;5030746;28;20253;-70
2022/11/22 12:23:37;;;;;;;1.60;1.10;;;7.70;99.90;;;;;;5031439;28;20229;-69
2022/11/22 12:26:05;;;;;;;3.65;1.50;;;7.80;99.90;;;;;;5031464;28;20206;-69
2022/11/22 12:28:32;;;;;;;1.20;1.10;;;8.00;99.90;;;;;;5030678;28;20226;-69
2022/11/22 12:31:04;;;;;;;2.10;1.00;;;8.00;99.90;;;;;;5030617;28;20221;-69
2022/11/22 12:33:35;;;;;;;1.00;0.73;;;8.00;99.90;;;;;;5031269;28;20592;-69
2022/11/22 12:36:09;;;;;;;3.45;1.17;;;8.20;99.90;;;;;;5030673;28;20656;-69
2022/11/22 12:38:40;;;;;;;4.03;1.50;;;8.20;99.90;;;;;;5031324;28;20453;-69
2022/11/22 12:41:12;;;;;;;1.25;1.13;;;8.10;99.90;;;;;;5029885;28;20219;-69
2022/11/22 12:43:45;;;;;;;2.78;1.25;;;8.20;99.90;;;;;;5030748;28;20202;-69
2022/11/22 12:46:18;;;;;;;1.80;1.38;;;8.20;99.90;;;;;;5030870;28;20201;-69
2022/11/22 12:48:47;;;;;;;3.60;1.65;;;8.30;99.90;;;;;;5031205;28;20557;-69
2022/11/22 12:51:23;;;;;;;1.73;1.17;;;8.30;99.90;;;;;;5028924;28;20232;-69
2022/11/22 12:53:51;;;;;;;2.53;1.30;;;8.40;99.90;;;;;;5030463;28;20201;-69
2022/11/22 12:56:25;;;;;;;5.65;1.65;;;8.30;99.90;;;;;;5030365;28;20211;-69
2022/11/22 12:58:59;;;;;;;1.55;1.20;;;8.30;99.90;;;;;;5030448;28;20236;-69
2022/11/22 13:01:32;;;;;;;2.83;1.50;;;8.50;99.90;;;;;;5030101;28;20600;-69
2022/11/22 13:04:06;;;;;;;2.15;1.20;;;8.50;99.90;;;;;;5030441;28;20212;-69
2022/11/22 13:06:45;;;;;;;1.70;1.33;;;8.50;99.90;;;;;;5030138;28;20205;-69
2022/11/22 13:09:17;;;;;;;1.20;1.00;;;8.70;99.90;;;;;;5030198;28;20254;-69
2022/11/22 13:11:49;;;;;;;2.42;1.42;;;8.60;99.90;;;;;;5029937;28;20743;-69
2022/11/22 13:14:18;;;;;;;3.10;1.23;;;8.60;99.90;;;;;;5029930;28;20235;-69
2022/11/22 13:16:45;;;;;;;2.17;1.23;;;8.60;99.90;;;;;;5030474;28;20202;-69
2022/11/22 13:19:15;;;;;;;1.95;1.17;;;8.50;99.90;;;;;;5029906;28;20204;-70